sensor_id;sensor_type;location;lat;lon;timestamp;P1;durP1;ratioP1;P2;durP2;ratioP2
58109;SDS011;58943;50.168;4.410;2024-03-17T00:00:25;1.30;;;1.10;;
58109;SDS011;58943;50.168;4.410;2024-03-17T00:02:51;1.42;;;1.10;;
58109;SDS011;58943;50.168;4.410;2024-03-17T00:05:17;1.42;;;1.20;;
58109;SDS011;58943;50.168;4.410;2024-03-17T00:07:44;1.75;;;1.20;;
58109;SDS011;58943;50.168;4.410;2024-03-17T00:10:10;3.83;;;1.25;;
58109;SDS011;58943;50.168;4.410;2024-03-17T00:12:36;1.30;;;1.15;;
58109;SDS011;58943;50.168;4.410;2024-03-17T00:15:03;2.10;;;1.23;;
58109;SDS011;58943;50.168;4.410;2024-03-17T00:17:30;2.13;;;1.15;;
58109;SDS011;58943;50.168;4.410;2024-03-17T00:19:56;1.45;;;1.15;;
58109;SDS011;58943;50.168;4.410;2024-03-17T00:22:23;1.42;;;1.20;;
58109;SDS011;58943;50.168;4.410;2024-03-17T00:24:49;1.60;;;1.48;;
58109;SDS011;58943;50.168;4.410;2024-03-17T00:27:16;1.83;;;1.40;;
58109;SDS011;58943;50.168;4.410;2024-03-17T00:29:42;1.90;;;1.17;;
58109;SDS011;58943;50.168;4.410;2024-03-17T00:32:09;1.85;;;1.50;;
58109;SDS011;58943;50.168;4.410;2024-03-17T00:34:36;1.50;;;1.30;;
58109;SDS011;58943;50.168;4.410;2024-03-17T00:37:03;2.95;;;1.38;;
58109;SDS011;58943;50.168;4.410;2024-03-17T00:39:29;1.73;;;1.30;;
58109;SDS011;58943;50.168;4.410;2024-03-17T00:41:57;2.10;;;1.50;;
58109;SDS011;58943;50.168;4.410;2024-03-17T00:44:23;1.95;;;1.27;;
58109;SDS011;58943;50.168;4.410;2024-03-17T00:46:50;2.58;;;1.60;;
58109;SDS011;58943;50.168;4.410;2024-03-17T00:49:16;2.10;;;1.90;;
58109;SDS011;58943;50.168;4.410;2024-03-17T00:51:42;2.78;;;1.83;;
58109;SDS011;58943;50.168;4.410;2024-03-17T00:54:08;2.10;;;1.52;;
58109;SDS011;58943;50.168;4.410;2024-03-17T00:56:35;1.73;;;1.50;;
58109;SDS011;58943;50.168;4.410;2024-03-17T00:59:01;2.30;;;1.50;;
58109;SDS011;58943;50.168;4.410;2024-03-17T01:01:28;2.00;;;1.50;;
58109;SDS011;58943;50.168;4.410;2024-03-17T01:03:54;2.25;;;1.70;;
58109;SDS011;58943;50.168;4.410;2024-03-17T01:06:20;2.80;;;1.85;;
58109;SDS011;58943;50.168;4.410;2024-03-17T01:08:47;2.13;;;1.52;;
58109;SDS011;58943;50.168;4.410;2024-03-17T01:11:14;2.08;;;1.60;;
58109;SDS011;58943;50.168;4.410;2024-03-17T01:13:42;2.08;;;1.48;;
58109;SDS011;58943;50.168;4.410;2024-03-17T01:16:08;2.40;;;1.80;;
58109;SDS011;58943;50.168;4.410;2024-03-17T01:18:35;2.55;;;1.60;;
58109;SDS011;58943;50.168;4.410;2024-03-17T01:21:02;2.33;;;1.83;;
58109;SDS011;58943;50.168;4.410;2024-03-17T01:23:29;1.77;;;1.63;;
58109;SDS011;58943;50.168;4.410;2024-03-17T01:25:55;2.60;;;1.88;;
58109;SDS011;58943;50.168;4.410;2024-03-17T01:28:21;2.03;;;1.70;;
58109;SDS011;58943;50.168;4.410;2024-03-17T01:30:47;3.25;;;1.80;;
58109;SDS011;58943;50.168;4.410;2024-03-17T01:33:14;2.38;;;1.60;;
58109;SDS011;58943;50.168;4.410;2024-03-17T01:35:40;1.90;;;1.42;;
58109;SDS011;58943;50.168;4.410;2024-03-17T01:38:07;3.08;;;1.92;;
58109;SDS011;58943;50.168;4.410;2024-03-17T01:40:35;3.67;;;2.27;;
58109;SDS011;58943;50.168;4.410;2024-03-17T01:43:01;3.45;;;1.90;;
58109;SDS011;58943;50.168;4.410;2024-03-17T01:45:28;2.58;;;1.73;;
58109;SDS011;58943;50.168;4.410;2024-03-17T01:47:55;2.15;;;1.60;;
58109;SDS011;58943;50.168;4.410;2024-03-17T01:50:30;3.17;;;1.60;;
58109;SDS011;58943;50.168;4.410;2024-03-17T01:52:58;2.33;;;2.00;;
58109;SDS011;58943;50.168;4.410;2024-03-17T01:55:26;2.08;;;1.65;;
58109;SDS011;58943;50.168;4.410;2024-03-17T01:57:53;2.67;;;1.63;;
58109;SDS011;58943;50.168;4.410;2024-03-17T02:00:20;2.92;;;1.80;;
58109;SDS011;58943;50.168;4.410;2024-03-17T02:02:46;3.50;;;1.98;;
58109;SDS011;58943;50.168;4.410;2024-03-17T02:05:13;2.00;;;1.77;;
58109;SDS011;58943;50.168;4.410;2024-03-17T02:07:39;3.42;;;2.00;;
58109;SDS011;58943;50.168;4.410;2024-03-17T02:10:05;4.28;;;2.55;;
58109;SDS011;58943;50.168;4.410;2024-03-17T02:12:34;3.03;;;1.98;;
58109;SDS011;58943;50.168;4.410;2024-03-17T02:15:00;2.72;;;1.95;;
58109;SDS011;58943;50.168;4.410;2024-03-17T02:17:33;2.30;;;1.75;;
58109;SDS011;58943;50.168;4.410;2024-03-17T02:20:00;3.03;;;1.85;;
58109;SDS011;58943;50.168;4.410;2024-03-17T02:22:27;2.22;;;1.70;;
58109;SDS011;58943;50.168;4.410;2024-03-17T02:24:53;3.17;;;1.90;;
58109;SDS011;58943;50.168;4.410;2024-03-17T02:27:20;3.03;;;1.90;;
58109;SDS011;58943;50.168;4.410;2024-03-17T02:29:46;3.65;;;1.95;;
58109;SDS011;58943;50.168;4.410;2024-03-17T02:32:12;2.08;;;1.77;;
58109;SDS011;58943;50.168;4.410;2024-03-17T02:34:39;2.92;;;2.00;;
58109;SDS011;58943;50.168;4.410;2024-03-17T02:37:06;2.88;;;1.92;;
58109;SDS011;58943;50.168;4.410;2024-03-17T02:39:35;3.72;;;2.20;;
58109;SDS011;58943;50.168;4.410;2024-03-17T02:42:06;2.65;;;2.00;;
58109;SDS011;58943;50.168;4.410;2024-03-17T02:44:33;3.42;;;2.17;;
58109;SDS011;58943;50.168;4.410;2024-03-17T02:46:59;2.83;;;2.00;;
58109;SDS011;58943;50.168;4.410;2024-03-17T02:49:26;2.90;;;2.05;;
58109;SDS011;58943;50.168;4.410;2024-03-17T02:51:53;2.03;;;1.83;;
58109;SDS011;58943;50.168;4.410;2024-03-17T02:54:20;3.92;;;1.95;;
58109;SDS011;58943;50.168;4.410;2024-03-17T02:56:47;2.42;;;1.92;;
58109;SDS011;58943;50.168;4.410;2024-03-17T02:59:13;2.58;;;1.92;;
58109;SDS011;58943;50.168;4.410;2024-03-17T03:01:40;3.42;;;2.00;;
58109;SDS011;58943;50.168;4.410;2024-03-17T03:04:06;2.33;;;2.00;;
58109;SDS011;58943;50.168;4.410;2024-03-17T03:06:35;4.15;;;2.10;;
58109;SDS011;58943;50.168;4.410;2024-03-17T03:09:02;2.55;;;2.28;;
58109;SDS011;58943;50.168;4.410;2024-03-17T03:11:31;2.90;;;2.00;;
58109;SDS011;58943;50.168;4.410;2024-03-17T03:13:57;3.55;;;2.30;;
58109;SDS011;58943;50.168;4.410;2024-03-17T03:16:23;3.15;;;2.10;;
58109;SDS011;58943;50.168;4.410;2024-03-17T03:18:50;3.88;;;2.08;;
58109;SDS011;58943;50.168;4.410;2024-03-17T03:21:16;2.35;;;1.80;;
58109;SDS011;58943;50.168;4.410;2024-03-17T03:23:42;4.20;;;2.20;;
58109;SDS011;58943;50.168;4.410;2024-03-17T03:26:10;2.70;;;1.90;;
58109;SDS011;58943;50.168;4.410;2024-03-17T03:28:37;3.05;;;2.10;;
58109;SDS011;58943;50.168;4.410;2024-03-17T03:31:03;3.17;;;2.20;;
58109;SDS011;58943;50.168;4.410;2024-03-17T03:33:30;3.47;;;2.40;;
58109;SDS011;58943;50.168;4.410;2024-03-17T03:35:57;3.47;;;2.30;;
58109;SDS011;58943;50.168;4.410;2024-03-17T03:38:23;3.35;;;2.00;;
58109;SDS011;58943;50.168;4.410;2024-03-17T03:40:50;3.15;;;2.13;;
58109;SDS011;58943;50.168;4.410;2024-03-17T03:43:17;2.80;;;1.92;;
58109;SDS011;58943;50.168;4.410;2024-03-17T03:45:44;3.28;;;2.10;;
58109;SDS011;58943;50.168;4.410;2024-03-17T03:48:10;2.13;;;1.90;;
58109;SDS011;58943;50.168;4.410;2024-03-17T03:50:38;3.63;;;2.17;;
58109;SDS011;58943;50.168;4.410;2024-03-17T03:53:04;3.50;;;2.30;;
58109;SDS011;58943;50.168;4.410;2024-03-17T03:55:31;2.55;;;2.20;;
58109;SDS011;58943;50.168;4.410;2024-03-17T03:57:57;2.78;;;2.10;;
58109;SDS011;58943;50.168;4.410;2024-03-17T04:00:23;3.58;;;2.15;;
58109;SDS011;58943;50.168;4.410;2024-03-17T04:02:54;3.67;;;2.13;;
58109;SDS011;58943;50.168;4.410;2024-03-17T04:05:21;3.45;;;2.17;;
58109;SDS011;58943;50.168;4.410;2024-03-17T04:07:47;2.40;;;2.00;;
58109;SDS011;58943;50.168;4.410;2024-03-17T04:10:14;4.60;;;1.90;;
58109;SDS011;58943;50.168;4.410;2024-03-17T04:12:41;3.40;;;2.22;;
58109;SDS011;58943;50.168;4.410;2024-03-17T04:15:08;3.08;;;2.22;;
58109;SDS011;58943;50.168;4.410;2024-03-17T04:17:37;3.95;;;2.45;;
58109;SDS011;58943;50.168;4.410;2024-03-17T04:20:04;2.42;;;2.22;;
58109;SDS011;58943;50.168;4.410;2024-03-17T04:22:33;3.50;;;2.40;;
58109;SDS011;58943;50.168;4.410;2024-03-17T04:25:00;2.80;;;2.10;;
58109;SDS011;58943;50.168;4.410;2024-03-17T04:27:26;3.00;;;2.10;;
58109;SDS011;58943;50.168;4.410;2024-03-17T04:29:54;3.15;;;2.10;;
58109;SDS011;58943;50.168;4.410;2024-03-17T04:32:21;3.58;;;2.42;;
58109;SDS011;58943;50.168;4.410;2024-03-17T04:34:47;3.53;;;2.13;;
58109;SDS011;58943;50.168;4.410;2024-03-17T04:37:13;2.40;;;1.83;;
58109;SDS011;58943;50.168;4.410;2024-03-17T04:39:40;4.00;;;2.30;;
58109;SDS011;58943;50.168;4.410;2024-03-17T04:42:11;3.15;;;2.10;;
58109;SDS011;58943;50.168;4.410;2024-03-17T04:44:39;3.15;;;2.10;;
58109;SDS011;58943;50.168;4.410;2024-03-17T04:47:05;3.65;;;2.30;;
58109;SDS011;58943;50.168;4.410;2024-03-17T04:49:32;3.25;;;1.98;;
58109;SDS011;58943;50.168;4.410;2024-03-17T04:51:59;2.95;;;2.00;;
58109;SDS011;58943;50.168;4.410;2024-03-17T04:54:25;4.38;;;2.42;;
58109;SDS011;58943;50.168;4.410;2024-03-17T04:56:51;3.55;;;2.20;;
58109;SDS011;58943;50.168;4.410;2024-03-17T04:59:17;3.20;;;2.30;;
58109;SDS011;58943;50.168;4.410;2024-03-17T05:01:44;3.67;;;2.30;;
58109;SDS011;58943;50.168;4.410;2024-03-17T05:04:10;3.28;;;1.83;;
58109;SDS011;58943;50.168;4.410;2024-03-17T05:06:36;2.92;;;2.25;;
58109;SDS011;58943;50.168;4.410;2024-03-17T05:09:02;2.45;;;2.17;;
58109;SDS011;58943;50.168;4.410;2024-03-17T05:11:30;2.75;;;2.10;;
58109;SDS011;58943;50.168;4.410;2024-03-17T05:13:56;3.90;;;2.42;;
58109;SDS011;58943;50.168;4.410;2024-03-17T05:16:24;3.55;;;2.30;;
58109;SDS011;58943;50.168;4.410;2024-03-17T05:18:50;3.90;;;2.00;;
58109;SDS011;58943;50.168;4.410;2024-03-17T05:21:17;2.97;;;2.10;;
58109;SDS011;58943;50.168;4.410;2024-03-17T05:23:43;3.13;;;1.88;;
58109;SDS011;58943;50.168;4.410;2024-03-17T05:26:09;2.88;;;2.08;;
58109;SDS011;58943;50.168;4.410;2024-03-17T05:28:35;2.90;;;2.03;;
58109;SDS011;58943;50.168;4.410;2024-03-17T05:31:02;2.67;;;2.00;;
58109;SDS011;58943;50.168;4.410;2024-03-17T05:33:28;2.50;;;1.92;;
58109;SDS011;58943;50.168;4.410;2024-03-17T05:35:55;2.85;;;1.95;;
58109;SDS011;58943;50.168;4.410;2024-03-17T05:38:22;3.30;;;2.00;;
58109;SDS011;58943;50.168;4.410;2024-03-17T05:40:55;2.70;;;1.85;;
58109;SDS011;58943;50.168;4.410;2024-03-17T05:43:22;3.20;;;2.20;;
58109;SDS011;58943;50.168;4.410;2024-03-17T05:46:01;3.42;;;1.80;;
58109;SDS011;58943;50.168;4.410;2024-03-17T05:48:28;2.65;;;2.22;;
58109;SDS011;58943;50.168;4.410;2024-03-17T05:50:54;3.05;;;1.92;;
58109;SDS011;58943;50.168;4.410;2024-03-17T05:53:21;4.15;;;2.20;;
58109;SDS011;58943;50.168;4.410;2024-03-17T05:55:49;2.47;;;1.95;;
58109;SDS011;58943;50.168;4.410;2024-03-17T05:58:15;2.90;;;2.03;;
58109;SDS011;58943;50.168;4.410;2024-03-17T06:00:42;2.88;;;1.95;;
58109;SDS011;58943;50.168;4.410;2024-03-17T06:03:09;2.80;;;2.13;;
58109;SDS011;58943;50.168;4.410;2024-03-17T06:05:36;2.78;;;1.90;;
58109;SDS011;58943;50.168;4.410;2024-03-17T06:08:03;2.85;;;1.80;;
58109;SDS011;58943;50.168;4.410;2024-03-17T06:10:31;3.58;;;1.80;;
58109;SDS011;58943;50.168;4.410;2024-03-17T06:12:57;2.42;;;1.98;;
58109;SDS011;58943;50.168;4.410;2024-03-17T06:15:24;3.67;;;2.40;;
58109;SDS011;58943;50.168;4.410;2024-03-17T06:17:51;3.05;;;2.10;;
58109;SDS011;58943;50.168;4.410;2024-03-17T06:20:18;3.20;;;2.20;;
58109;SDS011;58943;50.168;4.410;2024-03-17T06:22:44;2.92;;;2.10;;
58109;SDS011;58943;50.168;4.410;2024-03-17T06:25:11;2.88;;;2.20;;
58109;SDS011;58943;50.168;4.410;2024-03-17T06:27:37;3.67;;;2.42;;
58109;SDS011;58943;50.168;4.410;2024-03-17T06:30:04;2.53;;;1.90;;
58109;SDS011;58943;50.168;4.410;2024-03-17T06:32:33;3.20;;;1.90;;
58109;SDS011;58943;50.168;4.410;2024-03-17T06:35:01;2.28;;;1.95;;
58109;SDS011;58943;50.168;4.410;2024-03-17T06:37:27;2.72;;;2.03;;
58109;SDS011;58943;50.168;4.410;2024-03-17T06:39:54;2.60;;;1.92;;
58109;SDS011;58943;50.168;4.410;2024-03-17T06:42:20;2.13;;;1.70;;
58109;SDS011;58943;50.168;4.410;2024-03-17T06:44:47;3.03;;;1.75;;
58109;SDS011;58943;50.168;4.410;2024-03-17T06:47:13;3.15;;;1.90;;
58109;SDS011;58943;50.168;4.410;2024-03-17T06:49:39;2.47;;;1.83;;
58109;SDS011;58943;50.168;4.410;2024-03-17T06:52:05;2.63;;;1.80;;
58109;SDS011;58943;50.168;4.410;2024-03-17T06:54:32;2.53;;;1.80;;
58109;SDS011;58943;50.168;4.410;2024-03-17T06:56:58;3.13;;;1.80;;
58109;SDS011;58943;50.168;4.410;2024-03-17T06:59:25;3.20;;;2.00;;
58109;SDS011;58943;50.168;4.410;2024-03-17T07:01:51;2.88;;;1.88;;
58109;SDS011;58943;50.168;4.410;2024-03-17T07:04:18;3.08;;;1.90;;
58109;SDS011;58943;50.168;4.410;2024-03-17T07:06:46;2.42;;;1.80;;
58109;SDS011;58943;50.168;4.410;2024-03-17T07:09:12;2.63;;;1.80;;
58109;SDS011;58943;50.168;4.410;2024-03-17T07:11:39;2.72;;;1.85;;
58109;SDS011;58943;50.168;4.410;2024-03-17T07:14:05;2.85;;;1.80;;
58109;SDS011;58943;50.168;4.410;2024-03-17T07:16:31;2.70;;;1.77;;
58109;SDS011;58943;50.168;4.410;2024-03-17T07:18:58;2.38;;;1.83;;
58109;SDS011;58943;50.168;4.410;2024-03-17T07:21:24;2.35;;;1.80;;
58109;SDS011;58943;50.168;4.410;2024-03-17T07:23:50;3.03;;;2.03;;
58109;SDS011;58943;50.168;4.410;2024-03-17T07:26:17;3.15;;;1.85;;
58109;SDS011;58943;50.168;4.410;2024-03-17T07:28:43;2.88;;;1.77;;
58109;SDS011;58943;50.168;4.410;2024-03-17T07:31:10;2.47;;;1.80;;
58109;SDS011;58943;50.168;4.410;2024-03-17T07:33:36;2.40;;;1.80;;
58109;SDS011;58943;50.168;4.410;2024-03-17T07:36:03;2.03;;;1.77;;
58109;SDS011;58943;50.168;4.410;2024-03-17T07:38:30;3.15;;;1.83;;
58109;SDS011;58943;50.168;4.410;2024-03-17T07:43:24;3.03;;;1.90;;
58109;SDS011;58943;50.168;4.410;2024-03-17T07:46:00;2.20;;;1.80;;
58109;SDS011;58943;50.168;4.410;2024-03-17T07:48:26;2.75;;;1.70;;
58109;SDS011;58943;50.168;4.410;2024-03-17T07:51:03;2.28;;;2.08;;
58109;SDS011;58943;50.168;4.410;2024-03-17T07:53:30;2.85;;;1.50;;
58109;SDS011;58943;50.168;4.410;2024-03-17T07:55:57;2.72;;;1.90;;
58109;SDS011;58943;50.168;4.410;2024-03-17T07:58:24;2.65;;;1.55;;
58109;SDS011;58943;50.168;4.410;2024-03-17T08:00:51;2.58;;;2.00;;
58109;SDS011;58943;50.168;4.410;2024-03-17T08:03:18;2.55;;;1.90;;
58109;SDS011;58943;50.168;4.410;2024-03-17T08:05:50;2.65;;;1.80;;
58109;SDS011;58943;50.168;4.410;2024-03-17T08:08:17;2.15;;;1.83;;
58109;SDS011;58943;50.168;4.410;2024-03-17T08:10:43;3.10;;;1.77;;
58109;SDS011;58943;50.168;4.410;2024-03-17T08:13:10;3.03;;;2.03;;
58109;SDS011;58943;50.168;4.410;2024-03-17T08:15:36;2.35;;;1.98;;
58109;SDS011;58943;50.168;4.410;2024-03-17T08:18:03;2.90;;;1.80;;
58109;SDS011;58943;50.168;4.410;2024-03-17T08:20:36;3.95;;;1.95;;
58109;SDS011;58943;50.168;4.410;2024-03-17T08:23:03;3.00;;;1.85;;
58109;SDS011;58943;50.168;4.410;2024-03-17T08:25:31;3.33;;;1.83;;
58109;SDS011;58943;50.168;4.410;2024-03-17T08:27:57;2.70;;;1.80;;
58109;SDS011;58943;50.168;4.410;2024-03-17T08:30:23;2.72;;;1.90;;
58109;SDS011;58943;50.168;4.410;2024-03-17T08:32:50;1.95;;;1.48;;
58109;SDS011;58943;50.168;4.410;2024-03-17T08:35:16;2.58;;;1.70;;
58109;SDS011;58943;50.168;4.410;2024-03-17T08:37:42;2.55;;;1.60;;
58109;SDS011;58943;50.168;4.410;2024-03-17T08:40:10;2.90;;;1.98;;
58109;SDS011;58943;50.168;4.410;2024-03-17T08:42:37;2.53;;;1.80;;
58109;SDS011;58943;50.168;4.410;2024-03-17T08:45:03;1.90;;;1.30;;
58109;SDS011;58943;50.168;4.410;2024-03-17T08:47:30;2.20;;;1.83;;
58109;SDS011;58943;50.168;4.410;2024-03-17T08:49:56;3.70;;;1.98;;
58109;SDS011;58943;50.168;4.410;2024-03-17T08:52:23;1.92;;;1.52;;
58109;SDS011;58943;50.168;4.410;2024-03-17T08:54:50;2.47;;;1.90;;
58109;SDS011;58943;50.168;4.410;2024-03-17T08:57:17;3.28;;;1.77;;
58109;SDS011;58943;50.168;4.410;2024-03-17T08:59:46;2.65;;;1.85;;
58109;SDS011;58943;50.168;4.410;2024-03-17T09:04:40;2.67;;;1.90;;
58109;SDS011;58943;50.168;4.410;2024-03-17T09:07:06;1.95;;;1.60;;
58109;SDS011;58943;50.168;4.410;2024-03-17T09:09:33;2.67;;;1.90;;
58109;SDS011;58943;50.168;4.410;2024-03-17T09:11:59;2.08;;;1.55;;
58109;SDS011;58943;50.168;4.410;2024-03-17T09:14:25;2.08;;;1.55;;
58109;SDS011;58943;50.168;4.410;2024-03-17T09:16:52;2.60;;;1.60;;
58109;SDS011;58943;50.168;4.410;2024-03-17T09:19:18;1.85;;;1.50;;
58109;SDS011;58943;50.168;4.410;2024-03-17T09:21:44;2.60;;;1.75;;
58109;SDS011;58943;50.168;4.410;2024-03-17T09:24:11;1.70;;;1.50;;
58109;SDS011;58943;50.168;4.410;2024-03-17T09:26:37;2.30;;;1.65;;
58109;SDS011;58943;50.168;4.410;2024-03-17T09:29:04;2.38;;;1.60;;
58109;SDS011;58943;50.168;4.410;2024-03-17T09:31:31;1.80;;;1.50;;
58109;SDS011;58943;50.168;4.410;2024-03-17T09:34:01;1.85;;;1.38;;
58109;SDS011;58943;50.168;4.410;2024-03-17T09:36:27;2.67;;;1.67;;
58109;SDS011;58943;50.168;4.410;2024-03-17T09:38:53;1.70;;;1.45;;
58109;SDS011;58943;50.168;4.410;2024-03-17T09:41:21;1.75;;;1.40;;
58109;SDS011;58943;50.168;4.410;2024-03-17T09:43:47;1.70;;;1.42;;
58109;SDS011;58943;50.168;4.410;2024-03-17T09:46:17;1.85;;;1.58;;
58109;SDS011;58943;50.168;4.410;2024-03-17T09:48:44;1.65;;;1.30;;
58109;SDS011;58943;50.168;4.410;2024-03-17T09:51:15;1.95;;;1.70;;
58109;SDS011;58943;50.168;4.410;2024-03-17T09:53:44;3.95;;;1.63;;
58109;SDS011;58943;50.168;4.410;2024-03-17T09:56:14;2.13;;;1.40;;
58109;SDS011;58943;50.168;4.410;2024-03-17T09:58:42;1.98;;;1.42;;
58109;SDS011;58943;50.168;4.410;2024-03-17T10:01:08;1.98;;;1.70;;
58109;SDS011;58943;50.168;4.410;2024-03-17T10:03:47;2.20;;;1.55;;
58109;SDS011;58943;50.168;4.410;2024-03-17T10:06:24;2.28;;;1.40;;
58109;SDS011;58943;50.168;4.410;2024-03-17T10:08:53;1.75;;;1.17;;
58109;SDS011;58943;50.168;4.410;2024-03-17T10:11:20;1.73;;;1.55;;
58109;SDS011;58943;50.168;4.410;2024-03-17T10:13:47;2.90;;;1.63;;
58109;SDS011;58943;50.168;4.410;2024-03-17T10:16:28;1.80;;;1.38;;
58109;SDS011;58943;50.168;4.410;2024-03-17T10:21:36;2.00;;;1.50;;
58109;SDS011;58943;50.168;4.410;2024-03-17T10:24:10;2.47;;;1.20;;
58109;SDS011;58943;50.168;4.410;2024-03-17T10:26:43;2.42;;;1.55;;
58109;SDS011;58943;50.168;4.410;2024-03-17T10:29:24;3.22;;;1.67;;
58109;SDS011;58943;50.168;4.410;2024-03-17T10:31:54;2.35;;;1.38;;
58109;SDS011;58943;50.168;4.410;2024-03-17T10:34:21;1.83;;;1.30;;
58109;SDS011;58943;50.168;4.410;2024-03-17T10:37:36;2.42;;;1.38;;
58109;SDS011;58943;50.168;4.410;2024-03-17T10:39:38;1.73;;;1.30;;
58109;SDS011;58943;50.168;4.410;2024-03-17T10:42:05;3.78;;;1.50;;
58109;SDS011;58943;50.168;4.410;2024-03-17T10:44:32;2.05;;;1.45;;
58109;SDS011;58943;50.168;4.410;2024-03-17T10:46:59;2.55;;;1.30;;
58109;SDS011;58943;50.168;4.410;2024-03-17T10:49:35;1.85;;;1.40;;
58109;SDS011;58943;50.168;4.410;2024-03-17T10:54:30;2.72;;;1.30;;
58109;SDS011;58943;50.168;4.410;2024-03-17T10:56:57;2.88;;;1.40;;
58109;SDS011;58943;50.168;4.410;2024-03-17T10:59:26;1.70;;;1.30;;
58109;SDS011;58943;50.168;4.410;2024-03-17T11:01:55;2.17;;;1.42;;
58109;SDS011;58943;50.168;4.410;2024-03-17T11:04:22;1.75;;;1.30;;
58109;SDS011;58943;50.168;4.410;2024-03-17T11:06:48;2.30;;;1.42;;
58109;SDS011;58943;50.168;4.410;2024-03-17T11:09:15;2.63;;;1.40;;
58109;SDS011;58943;50.168;4.410;2024-03-17T11:11:42;2.03;;;1.10;;
58109;SDS011;58943;50.168;4.410;2024-03-17T11:14:15;2.55;;;1.63;;
58109;SDS011;58943;50.168;4.410;2024-03-17T11:16:42;1.95;;;1.42;;
58109;SDS011;58943;50.168;4.410;2024-03-17T11:19:12;1.90;;;1.30;;
58109;SDS011;58943;50.168;4.410;2024-03-17T11:21:41;1.70;;;1.23;;
58109;SDS011;58943;50.168;4.410;2024-03-17T11:24:07;2.05;;;1.10;;
58109;SDS011;58943;50.168;4.410;2024-03-17T11:26:44;1.90;;;1.20;;
58109;SDS011;58943;50.168;4.410;2024-03-17T11:29:26;2.58;;;1.40;;
58109;SDS011;58943;50.168;4.410;2024-03-17T11:31:53;1.95;;;1.20;;
58109;SDS011;58943;50.168;4.410;2024-03-17T11:36:53;2.33;;;1.17;;
58109;SDS011;58943;50.168;4.410;2024-03-17T11:39:20;1.50;;;0.98;;
58109;SDS011;58943;50.168;4.410;2024-03-17T11:41:51;2.10;;;1.23;;
58109;SDS011;58943;50.168;4.410;2024-03-17T11:46:54;2.03;;;1.05;;
58109;SDS011;58943;50.168;4.410;2024-03-17T11:54:17;1.85;;;1.00;;
58109;SDS011;58943;50.168;4.410;2024-03-17T11:56:48;1.20;;;1.00;;
58109;SDS011;58943;50.168;4.410;2024-03-17T11:59:14;1.52;;;1.10;;
58109;SDS011;58943;50.168;4.410;2024-03-17T12:01:46;1.43;;;1.00;;
58109;SDS011;58943;50.168;4.410;2024-03-17T12:04:16;1.98;;;1.30;;
58109;SDS011;58943;50.168;4.410;2024-03-17T12:06:44;1.75;;;0.98;;
58109;SDS011;58943;50.168;4.410;2024-03-17T12:09:27;1.27;;;1.00;;
58109;SDS011;58943;50.168;4.410;2024-03-17T12:12:00;3.30;;;1.20;;
58109;SDS011;58943;50.168;4.410;2024-03-17T12:14:26;2.30;;;1.05;;
58109;SDS011;58943;50.168;4.410;2024-03-17T12:17:00;1.48;;;0.88;;
58109;SDS011;58943;50.168;4.410;2024-03-17T12:19:27;2.10;;;1.08;;
58109;SDS011;58943;50.168;4.410;2024-03-17T12:21:54;2.20;;;1.20;;
58109;SDS011;58943;50.168;4.410;2024-03-17T12:24:21;2.35;;;1.10;;
58109;SDS011;58943;50.168;4.410;2024-03-17T12:26:48;1.63;;;0.93;;
58109;SDS011;58943;50.168;4.410;2024-03-17T12:29:28;1.63;;;1.10;;
58109;SDS011;58943;50.168;4.410;2024-03-17T12:34:33;1.02;;;0.88;;
58109;SDS011;58943;50.168;4.410;2024-03-17T12:37:00;2.50;;;1.13;;
58109;SDS011;58943;50.168;4.410;2024-03-17T12:39:30;2.80;;;1.27;;
58109;SDS011;58943;50.168;4.410;2024-03-17T12:42:06;1.73;;;1.08;;
58109;SDS011;58943;50.168;4.410;2024-03-17T12:44:37;2.60;;;1.42;;
58109;SDS011;58943;50.168;4.410;2024-03-17T12:47:07;2.03;;;0.90;;
58109;SDS011;58943;50.168;4.410;2024-03-17T12:49:35;2.38;;;1.08;;
58109;SDS011;58943;50.168;4.410;2024-03-17T12:52:01;1.35;;;1.10;;
58109;SDS011;58943;50.168;4.410;2024-03-17T12:54:28;1.42;;;1.00;;
58109;SDS011;58943;50.168;4.410;2024-03-17T12:57:04;1.27;;;0.90;;
58109;SDS011;58943;50.168;4.410;2024-03-17T12:59:49;1.23;;;0.80;;
58109;SDS011;58943;50.168;4.410;2024-03-17T13:02:34;1.83;;;1.00;;
58109;SDS011;58943;50.168;4.410;2024-03-17T13:05:07;1.83;;;1.10;;
58109;SDS011;58943;50.168;4.410;2024-03-17T13:07:34;1.20;;;0.93;;
58109;SDS011;58943;50.168;4.410;2024-03-17T13:10:01;2.53;;;1.08;;
58109;SDS011;58943;50.168;4.410;2024-03-17T13:12:28;1.00;;;0.90;;
58109;SDS011;58943;50.168;4.410;2024-03-17T13:14:54;2.78;;;1.00;;
58109;SDS011;58943;50.168;4.410;2024-03-17T13:17:21;1.25;;;1.00;;
58109;SDS011;58943;50.168;4.410;2024-03-17T13:19:47;1.17;;;0.75;;
58109;SDS011;58943;50.168;4.410;2024-03-17T13:22:14;1.60;;;0.73;;
58109;SDS011;58943;50.168;4.410;2024-03-17T13:24:40;2.13;;;0.90;;
58109;SDS011;58943;50.168;4.410;2024-03-17T13:27:06;1.38;;;0.90;;
58109;SDS011;58943;50.168;4.410;2024-03-17T13:29:36;1.58;;;1.00;;
58109;SDS011;58943;50.168;4.410;2024-03-17T13:32:03;2.05;;;1.10;;
58109;SDS011;58943;50.168;4.410;2024-03-17T13:34:30;1.88;;;0.88;;
58109;SDS011;58943;50.168;4.410;2024-03-17T13:36:56;1.67;;;0.90;;
58109;SDS011;58943;50.168;4.410;2024-03-17T13:39:28;1.63;;;0.82;;
58109;SDS011;58943;50.168;4.410;2024-03-17T13:41:57;1.08;;;0.90;;
58109;SDS011;58943;50.168;4.410;2024-03-17T13:44:30;1.95;;;0.98;;
58109;SDS011;58943;50.168;4.410;2024-03-17T13:46:56;1.20;;;0.82;;
58109;SDS011;58943;50.168;4.410;2024-03-17T13:49:29;1.73;;;1.02;;
58109;SDS011;58943;50.168;4.410;2024-03-17T13:51:56;1.25;;;0.80;;
58109;SDS011;58943;50.168;4.410;2024-03-17T13:54:22;2.00;;;0.70;;
58109;SDS011;58943;50.168;4.410;2024-03-17T13:56:48;2.10;;;0.80;;
58109;SDS011;58943;50.168;4.410;2024-03-17T13:59:15;1.27;;;0.90;;
58109;SDS011;58943;50.168;4.410;2024-03-17T14:01:42;2.65;;;0.77;;
58109;SDS011;58943;50.168;4.410;2024-03-17T14:04:12;2.00;;;1.20;;
58109;SDS011;58943;50.168;4.410;2024-03-17T14:06:40;0.90;;;0.77;;
58109;SDS011;58943;50.168;4.410;2024-03-17T14:09:07;2.38;;;1.13;;
58109;SDS011;58943;50.168;4.410;2024-03-17T14:11:37;2.15;;;1.02;;
58109;SDS011;58943;50.168;4.410;2024-03-17T14:14:04;2.10;;;0.85;;
58109;SDS011;58943;50.168;4.410;2024-03-17T14:16:31;2.33;;;0.90;;
58109;SDS011;58943;50.168;4.410;2024-03-17T14:19:00;1.83;;;0.80;;
58109;SDS011;58943;50.168;4.410;2024-03-17T14:21:27;1.88;;;0.73;;
58109;SDS011;58943;50.168;4.410;2024-03-17T14:23:54;3.38;;;0.93;;
58109;SDS011;58943;50.168;4.410;2024-03-17T14:26:20;1.35;;;0.77;;
58109;SDS011;58943;50.168;4.410;2024-03-17T14:28:47;3.08;;;0.80;;
58109;SDS011;58943;50.168;4.410;2024-03-17T14:31:15;1.75;;;0.90;;
58109;SDS011;58943;50.168;4.410;2024-03-17T14:33:43;1.20;;;0.70;;
58109;SDS011;58943;50.168;4.410;2024-03-17T14:36:09;1.13;;;1.02;;
58109;SDS011;58943;50.168;4.410;2024-03-17T14:38:35;1.77;;;1.00;;
58109;SDS011;58943;50.168;4.410;2024-03-17T14:41:02;1.23;;;0.77;;
58109;SDS011;58943;50.168;4.410;2024-03-17T14:43:30;1.25;;;0.70;;
58109;SDS011;58943;50.168;4.410;2024-03-17T14:45:56;1.65;;;0.80;;
58109;SDS011;58943;50.168;4.410;2024-03-17T14:48:22;1.42;;;0.80;;
58109;SDS011;58943;50.168;4.410;2024-03-17T14:50:49;1.95;;;0.80;;
58109;SDS011;58943;50.168;4.410;2024-03-17T14:53:15;0.88;;;0.70;;
58109;SDS011;58943;50.168;4.410;2024-03-17T14:55:42;2.15;;;0.70;;
58109;SDS011;58943;50.168;4.410;2024-03-17T14:58:09;1.67;;;0.90;;
58109;SDS011;58943;50.168;4.410;2024-03-17T15:00:35;1.67;;;0.90;;
58109;SDS011;58943;50.168;4.410;2024-03-17T15:03:02;3.33;;;0.90;;
58109;SDS011;58943;50.168;4.410;2024-03-17T15:05:33;1.35;;;0.70;;
58109;SDS011;58943;50.168;4.410;2024-03-17T15:07:59;1.65;;;0.95;;
58109;SDS011;58943;50.168;4.410;2024-03-17T15:10:27;0.70;;;0.70;;
58109;SDS011;58943;50.168;4.410;2024-03-17T15:12:54;1.58;;;0.82;;